sensor_id;sensor_type;location;lat;lon;timestamp;P1;durP1;ratioP1;P2;durP2;ratioP2
16472;SDS011;8347;52.486;13.432;2023-06-14T00:02:21;5.43;;;2.10;;
16472;SDS011;8347;52.486;13.432;2023-06-14T00:05:08;2.10;;;1.90;;
16472;SDS011;8347;52.486;13.432;2023-06-14T00:07:54;4.22;;;2.38;;
16472;SDS011;8347;52.486;13.432;2023-06-14T00:10:41;6.65;;;2.25;;
16472;SDS011;8347;52.486;13.432;2023-06-14T00:13:27;5.18;;;2.33;;
16472;SDS011;8347;52.486;13.432;2023-06-14T00:16:14;3.50;;;2.58;;
16472;SDS011;8347;52.486;13.432;2023-06-14T00:19:02;7.53;;;2.67;;
16472;SDS011;8347;52.486;13.432;2023-06-14T00:21:50;2.85;;;2.35;;
16472;SDS011;8347;52.486;13.432;2023-06-14T00:24:37;2.70;;;2.50;;
16472;SDS011;8347;52.486;13.432;2023-06-14T00:27:23;4.40;;;2.70;;
16472;SDS011;8347;52.486;13.432;2023-06-14T00:30:10;3.00;;;2.50;;
16472;SDS011;8347;52.486;13.432;2023-06-14T00:32:57;3.95;;;2.63;;
16472;SDS011;8347;52.486;13.432;2023-06-14T00:35:45;5.47;;;2.95;;
16472;SDS011;8347;52.486;13.432;2023-06-14T00:38:32;3.45;;;2.78;;
16472;SDS011;8347;52.486;13.432;2023-06-14T00:41:19;3.40;;;3.10;;
16472;SDS011;8347;52.486;13.432;2023-06-14T00:44:06;2.90;;;2.58;;
16472;SDS011;8347;52.486;13.432;2023-06-14T00:46:54;7.05;;;2.97;;
16472;SDS011;8347;52.486;13.432;2023-06-14T00:49:43;5.35;;;3.30;;
16472;SDS011;8347;52.486;13.432;2023-06-14T00:52:29;4.80;;;2.97;;
16472;SDS011;8347;52.486;13.432;2023-06-14T00:55:18;6.03;;;2.70;;
16472;SDS011;8347;52.486;13.432;2023-06-14T00:58:05;4.97;;;3.03;;
16472;SDS011;8347;52.486;13.432;2023-06-14T01:00:52;10.85;;;3.28;;
16472;SDS011;8347;52.486;13.432;2023-06-14T01:03:40;8.65;;;3.22;;
16472;SDS011;8347;52.486;13.432;2023-06-14T01:06:45;5.53;;;3.50;;
16472;SDS011;8347;52.486;13.432;2023-06-14T01:09:38;5.72;;;3.95;;
16472;SDS011;8347;52.486;13.432;2023-06-14T01:12:38;5.80;;;3.45;;
16472;SDS011;8347;52.486;13.432;2023-06-14T01:15:47;7.47;;;3.47;;
16472;SDS011;8347;52.486;13.432;2023-06-14T01:18:34;5.63;;;3.72;;
16472;SDS011;8347;52.486;13.432;2023-06-14T01:21:22;3.95;;;3.40;;
16472;SDS011;8347;52.486;13.432;2023-06-14T01:24:09;5.72;;;3.83;;
16472;SDS011;8347;52.486;13.432;2023-06-14T01:26:57;3.83;;;3.40;;
16472;SDS011;8347;52.486;13.432;2023-06-14T01:29:47;3.30;;;3.00;;
16472;SDS011;8347;52.486;13.432;2023-06-14T01:32:34;5.35;;;3.47;;
16472;SDS011;8347;52.486;13.432;2023-06-14T01:35:22;6.82;;;3.83;;
16472;SDS011;8347;52.486;13.432;2023-06-14T01:38:08;4.88;;;3.80;;
16472;SDS011;8347;52.486;13.432;2023-06-14T01:40:56;7.30;;;4.05;;
16472;SDS011;8347;52.486;13.432;2023-06-14T01:43:45;7.82;;;3.85;;
16472;SDS011;8347;52.486;13.432;2023-06-14T01:46:33;4.35;;;3.85;;
16472;SDS011;8347;52.486;13.432;2023-06-14T01:49:20;5.88;;;4.00;;
16472;SDS011;8347;52.486;13.432;2023-06-14T01:52:06;6.75;;;3.30;;
16472;SDS011;8347;52.486;13.432;2023-06-14T01:54:55;8.73;;;3.67;;
16472;SDS011;8347;52.486;13.432;2023-06-14T01:57:43;5.32;;;3.50;;
16472;SDS011;8347;52.486;13.432;2023-06-14T02:00:30;5.93;;;4.00;;
16472;SDS011;8347;52.486;13.432;2023-06-14T02:03:16;4.18;;;3.55;;
16472;SDS011;8347;52.486;13.432;2023-06-14T02:06:05;5.13;;;3.88;;
16472;SDS011;8347;52.486;13.432;2023-06-14T02:08:52;4.63;;;3.80;;
16472;SDS011;8347;52.486;13.432;2023-06-14T02:11:39;5.90;;;4.03;;
16472;SDS011;8347;52.486;13.432;2023-06-14T02:14:26;8.55;;;4.00;;
16472;SDS011;8347;52.486;13.432;2023-06-14T02:17:12;6.40;;;4.57;;
16472;SDS011;8347;52.486;13.432;2023-06-14T02:20:00;7.95;;;3.85;;
16472;SDS011;8347;52.486;13.432;2023-06-14T02:22:46;5.55;;;4.72;;
16472;SDS011;8347;52.486;13.432;2023-06-14T02:25:32;7.22;;;4.30;;
16472;SDS011;8347;52.486;13.432;2023-06-14T02:28:19;4.60;;;4.13;;
16472;SDS011;8347;52.486;13.432;2023-06-14T02:31:06;6.15;;;4.18;;
16472;SDS011;8347;52.486;13.432;2023-06-14T02:33:52;6.07;;;4.68;;
16472;SDS011;8347;52.486;13.432;2023-06-14T02:36:39;4.78;;;3.85;;
16472;SDS011;8347;52.486;13.432;2023-06-14T02:39:27;8.05;;;4.38;;
16472;SDS011;8347;52.486;13.432;2023-06-14T02:42:13;5.05;;;4.28;;
16472;SDS011;8347;52.486;13.432;2023-06-14T02:45:01;5.00;;;4.25;;
16472;SDS011;8347;52.486;13.432;2023-06-14T02:47:49;4.25;;;3.75;;
16472;SDS011;8347;52.486;13.432;2023-06-14T02:50:36;10.20;;;4.10;;
16472;SDS011;8347;52.486;13.432;2023-06-14T02:53:22;6.13;;;4.25;;
16472;SDS011;8347;52.486;13.432;2023-06-14T02:56:09;5.32;;;4.07;;
16472;SDS011;8347;52.486;13.432;2023-06-14T02:58:55;5.88;;;3.97;;
16472;SDS011;8347;52.486;13.432;2023-06-14T03:01:43;6.00;;;4.57;;
16472;SDS011;8347;52.486;13.432;2023-06-14T03:04:33;5.00;;;4.43;;
16472;SDS011;8347;52.486;13.432;2023-06-14T03:07:23;8.75;;;5.45;;
16472;SDS011;8347;52.486;13.432;2023-06-14T03:10:13;6.72;;;5.20;;
16472;SDS011;8347;52.486;13.432;2023-06-14T03:13:01;8.65;;;4.68;;
16472;SDS011;8347;52.486;13.432;2023-06-14T03:15:48;5.43;;;4.55;;
16472;SDS011;8347;52.486;13.432;2023-06-14T03:18:39;6.05;;;4.97;;
16472;SDS011;8347;52.486;13.432;2023-06-14T03:21:26;5.88;;;4.72;;
16472;SDS011;8347;52.486;13.432;2023-06-14T03:24:17;4.30;;;3.65;;
16472;SDS011;8347;52.486;13.432;2023-06-14T03:27:03;9.30;;;5.20;;
16472;SDS011;8347;52.486;13.432;2023-06-14T03:29:50;7.40;;;5.80;;
16472;SDS011;8347;52.486;13.432;2023-06-14T03:32:36;5.18;;;4.43;;
16472;SDS011;8347;52.486;13.432;2023-06-14T03:35:26;5.72;;;4.80;;
16472;SDS011;8347;52.486;13.432;2023-06-14T03:38:13;8.43;;;5.07;;
16472;SDS011;8347;52.486;13.432;2023-06-14T03:41:00;5.43;;;4.53;;
16472;SDS011;8347;52.486;13.432;2023-06-14T03:43:46;6.38;;;4.97;;
16472;SDS011;8347;52.486;13.432;2023-06-14T03:46:33;9.15;;;6.00;;
16472;SDS011;8347;52.486;13.432;2023-06-14T03:49:20;5.75;;;5.15;;
16472;SDS011;8347;52.486;13.432;2023-06-14T03:52:07;6.35;;;4.55;;
16472;SDS011;8347;52.486;13.432;2023-06-14T03:54:55;6.28;;;5.05;;
16472;SDS011;8347;52.486;13.432;2023-06-14T03:57:42;8.45;;;6.28;;
16472;SDS011;8347;52.486;13.432;2023-06-14T04:00:32;5.78;;;4.97;;
16472;SDS011;8347;52.486;13.432;2023-06-14T04:03:20;10.00;;;5.72;;
16472;SDS011;8347;52.486;13.432;2023-06-14T04:06:11;6.68;;;5.10;;
16472;SDS011;8347;52.486;13.432;2023-06-14T04:08:58;6.18;;;4.93;;
16472;SDS011;8347;52.486;13.432;2023-06-14T04:11:49;6.82;;;5.25;;
16472;SDS011;8347;52.486;13.432;2023-06-14T04:14:36;4.38;;;3.97;;
16472;SDS011;8347;52.486;13.432;2023-06-14T04:17:23;7.63;;;4.50;;
16472;SDS011;8347;52.486;13.432;2023-06-14T04:20:10;5.43;;;4.63;;
16472;SDS011;8347;52.486;13.432;2023-06-14T04:22:57;6.38;;;4.90;;
16472;SDS011;8347;52.486;13.432;2023-06-14T04:25:43;8.70;;;5.32;;
16472;SDS011;8347;52.486;13.432;2023-06-14T04:28:36;6.88;;;5.10;;
16472;SDS011;8347;52.486;13.432;2023-06-14T04:31:26;6.50;;;5.85;;
16472;SDS011;8347;52.486;13.432;2023-06-14T04:34:15;6.72;;;5.15;;
16472;SDS011;8347;52.486;13.432;2023-06-14T04:37:11;7.35;;;5.43;;
16472;SDS011;8347;52.486;13.432;2023-06-14T04:40:00;7.00;;;4.88;;
16472;SDS011;8347;52.486;13.432;2023-06-14T04:42:47;7.85;;;5.68;;
16472;SDS011;8347;52.486;13.432;2023-06-14T04:45:35;5.85;;;5.25;;
16472;SDS011;8347;52.486;13.432;2023-06-14T04:48:26;10.73;;;5.22;;
16472;SDS011;8347;52.486;13.432;2023-06-14T04:51:14;5.93;;;5.15;;
16472;SDS011;8347;52.486;13.432;2023-06-14T04:54:01;11.15;;;5.25;;
16472;SDS011;8347;52.486;13.432;2023-06-14T04:56:49;5.28;;;4.68;;
16472;SDS011;8347;52.486;13.432;2023-06-14T04:59:35;7.65;;;4.70;;
16472;SDS011;8347;52.486;13.432;2023-06-14T05:02:22;8.50;;;5.50;;
16472;SDS011;8347;52.486;13.432;2023-06-14T05:05:09;6.13;;;5.10;;
16472;SDS011;8347;52.486;13.432;2023-06-14T05:07:56;5.78;;;4.72;;
16472;SDS011;8347;52.486;13.432;2023-06-14T05:10:43;6.57;;;5.00;;
16472;SDS011;8347;52.486;13.432;2023-06-14T05:13:30;7.78;;;5.63;;
16472;SDS011;8347;52.486;13.432;2023-06-14T05:16:18;7.30;;;4.85;;
16472;SDS011;8347;52.486;13.432;2023-06-14T05:19:05;7.13;;;5.07;;
16472;SDS011;8347;52.486;13.432;2023-06-14T05:21:52;5.88;;;5.28;;
16472;SDS011;8347;52.486;13.432;2023-06-14T05:24:39;10.88;;;5.88;;
16472;SDS011;8347;52.486;13.432;2023-06-14T05:27:25;10.00;;;5.38;;
16472;SDS011;8347;52.486;13.432;2023-06-14T05:30:12;8.35;;;5.32;;
16472;SDS011;8347;52.486;13.432;2023-06-14T05:32:59;6.82;;;5.10;;
16472;SDS011;8347;52.486;13.432;2023-06-14T05:35:46;7.95;;;5.43;;
16472;SDS011;8347;52.486;13.432;2023-06-14T05:38:32;8.02;;;5.30;;
16472;SDS011;8347;52.486;13.432;2023-06-14T05:41:19;7.88;;;5.53;;
16472;SDS011;8347;52.486;13.432;2023-06-14T05:44:06;8.18;;;5.78;;
16472;SDS011;8347;52.486;13.432;2023-06-14T05:46:53;7.53;;;5.30;;
16472;SDS011;8347;52.486;13.432;2023-06-14T05:49:39;9.73;;;6.07;;
16472;SDS011;8347;52.486;13.432;2023-06-14T05:52:26;6.38;;;5.13;;
16472;SDS011;8347;52.486;13.432;2023-06-14T05:55:13;7.13;;;6.05;;
16472;SDS011;8347;52.486;13.432;2023-06-14T05:58:00;7.97;;;6.43;;
16472;SDS011;8347;52.486;13.432;2023-06-14T06:00:47;7.88;;;6.60;;
16472;SDS011;8347;52.486;13.432;2023-06-14T06:03:34;10.00;;;6.45;;
16472;SDS011;8347;52.486;13.432;2023-06-14T06:06:20;7.65;;;5.88;;
16472;SDS011;8347;52.486;13.432;2023-06-14T06:09:07;8.75;;;5.82;;
16472;SDS011;8347;52.486;13.432;2023-06-14T06:11:54;8.75;;;5.60;;
16472;SDS011;8347;52.486;13.432;2023-06-14T06:14:40;13.30;;;6.72;;
16472;SDS011;8347;52.486;13.432;2023-06-14T06:17:27;9.68;;;5.13;;
16472;SDS011;8347;52.486;13.432;2023-06-14T06:20:13;9.40;;;5.85;;
16472;SDS011;8347;52.486;13.432;2023-06-14T06:23:00;10.35;;;5.38;;
16472;SDS011;8347;52.486;13.432;2023-06-14T06:25:47;5.80;;;5.20;;
16472;SDS011;8347;52.486;13.432;2023-06-14T06:28:33;10.07;;;5.93;;
16472;SDS011;8347;52.486;13.432;2023-06-14T06:31:20;13.77;;;6.13;;
16472;SDS011;8347;52.486;13.432;2023-06-14T06:34:08;9.88;;;5.85;;
16472;SDS011;8347;52.486;13.432;2023-06-14T06:36:54;6.15;;;5.45;;
16472;SDS011;8347;52.486;13.432;2023-06-14T06:39:41;8.98;;;5.70;;
16472;SDS011;8347;52.486;13.432;2023-06-14T06:42:28;7.65;;;5.32;;
16472;SDS011;8347;52.486;13.432;2023-06-14T06:45:18;8.68;;;5.20;;
16472;SDS011;8347;52.486;13.432;2023-06-14T06:48:04;6.38;;;5.72;;
16472;SDS011;8347;52.486;13.432;2023-06-14T06:50:51;10.38;;;5.13;;
16472;SDS011;8347;52.486;13.432;2023-06-14T06:53:37;7.18;;;5.22;;
16472;SDS011;8347;52.486;13.432;2023-06-14T06:56:24;9.95;;;5.28;;
16472;SDS011;8347;52.486;13.432;2023-06-14T06:59:11;8.23;;;5.60;;
16472;SDS011;8347;52.486;13.432;2023-06-14T07:01:59;11.48;;;5.93;;
16472;SDS011;8347;52.486;13.432;2023-06-14T07:04:45;7.43;;;4.85;;
16472;SDS011;8347;52.486;13.432;2023-06-14T07:07:32;11.32;;;5.32;;
16472;SDS011;8347;52.486;13.432;2023-06-14T07:10:18;7.03;;;5.03;;
16472;SDS011;8347;52.486;13.432;2023-06-14T07:13:06;7.18;;;5.15;;
16472;SDS011;8347;52.486;13.432;2023-06-14T07:15:57;6.13;;;5.03;;
16472;SDS011;8347;52.486;13.432;2023-06-14T07:18:44;5.38;;;4.35;;
16472;SDS011;8347;52.486;13.432;2023-06-14T07:21:31;12.73;;;4.63;;
16472;SDS011;8347;52.486;13.432;2023-06-14T07:24:18;7.85;;;4.43;;
16472;SDS011;8347;52.486;13.432;2023-06-14T07:27:06;8.25;;;4.63;;
16472;SDS011;8347;52.486;13.432;2023-06-14T07:29:53;8.75;;;5.22;;
16472;SDS011;8347;52.486;13.432;2023-06-14T07:32:39;6.53;;;4.85;;
16472;SDS011;8347;52.486;13.432;2023-06-14T07:35:26;7.10;;;4.63;;
16472;SDS011;8347;52.486;13.432;2023-06-14T07:38:12;7.63;;;4.57;;
16472;SDS011;8347;52.486;13.432;2023-06-14T07:40:59;8.30;;;4.82;;
16472;SDS011;8347;52.486;13.432;2023-06-14T07:43:46;7.68;;;4.13;;
16472;SDS011;8347;52.486;13.432;2023-06-14T07:46:33;12.30;;;5.25;;
16472;SDS011;8347;52.486;13.432;2023-06-14T07:49:20;10.52;;;4.20;;
16472;SDS011;8347;52.486;13.432;2023-06-14T07:52:06;5.63;;;3.88;;
16472;SDS011;8347;52.486;13.432;2023-06-14T07:54:53;7.32;;;4.97;;
16472;SDS011;8347;52.486;13.432;2023-06-14T07:57:39;11.80;;;4.88;;
16472;SDS011;8347;52.486;13.432;2023-06-14T08:00:26;8.10;;;4.50;;
16472;SDS011;8347;52.486;13.432;2023-06-14T08:03:12;9.82;;;5.47;;
16472;SDS011;8347;52.486;13.432;2023-06-14T08:05:59;6.10;;;3.67;;
16472;SDS011;8347;52.486;13.432;2023-06-14T08:08:46;5.65;;;4.65;;
16472;SDS011;8347;52.486;13.432;2023-06-14T08:11:32;5.95;;;4.28;;
16472;SDS011;8347;52.486;13.432;2023-06-14T08:14:19;8.15;;;3.97;;
16472;SDS011;8347;52.486;13.432;2023-06-14T08:17:05;7.40;;;4.22;;
16472;SDS011;8347;52.486;13.432;2023-06-14T08:19:52;5.75;;;4.13;;
16472;SDS011;8347;52.486;13.432;2023-06-14T08:22:43;7.18;;;4.53;;
16472;SDS011;8347;52.486;13.432;2023-06-14T08:25:31;7.00;;;4.30;;
16472;SDS011;8347;52.486;13.432;2023-06-14T08:28:18;7.47;;;4.22;;
16472;SDS011;8347;52.486;13.432;2023-06-14T08:31:05;6.85;;;3.67;;
16472;SDS011;8347;52.486;13.432;2023-06-14T08:33:52;6.93;;;3.92;;
16472;SDS011;8347;52.486;13.432;2023-06-14T08:36:38;5.68;;;3.45;;
16472;SDS011;8347;52.486;13.432;2023-06-14T08:39:25;7.38;;;3.92;;
16472;SDS011;8347;52.486;13.432;2023-06-14T08:42:11;9.35;;;4.70;;
16472;SDS011;8347;52.486;13.432;2023-06-14T08:44:58;11.63;;;4.07;;
16472;SDS011;8347;52.486;13.432;2023-06-14T08:47:45;7.05;;;3.88;;
16472;SDS011;8347;52.486;13.432;2023-06-14T08:50:32;3.78;;;3.42;;
16472;SDS011;8347;52.486;13.432;2023-06-14T08:53:20;5.15;;;3.30;;
16472;SDS011;8347;52.486;13.432;2023-06-14T08:56:07;5.47;;;3.22;;
16472;SDS011;8347;52.486;13.432;2023-06-14T08:58:59;8.98;;;3.88;;
16472;SDS011;8347;52.486;13.432;2023-06-14T09:01:52;6.70;;;3.75;;
16472;SDS011;8347;52.486;13.432;2023-06-14T09:04:40;7.30;;;3.70;;
16472;SDS011;8347;52.486;13.432;2023-06-14T09:07:27;7.68;;;3.78;;
16472;SDS011;8347;52.486;13.432;2023-06-14T09:10:15;6.72;;;3.35;;
16472;SDS011;8347;52.486;13.432;2023-06-14T09:13:02;5.68;;;4.00;;
16472;SDS011;8347;52.486;13.432;2023-06-14T09:15:49;8.02;;;3.72;;
16472;SDS011;8347;52.486;13.432;2023-06-14T09:18:40;3.45;;;2.97;;
16472;SDS011;8347;52.486;13.432;2023-06-14T09:21:26;6.63;;;3.53;;
16472;SDS011;8347;52.486;13.432;2023-06-14T09:24:14;6.00;;;3.40;;
16472;SDS011;8347;52.486;13.432;2023-06-14T09:27:00;9.45;;;3.08;;
16472;SDS011;8347;52.486;13.432;2023-06-14T09:29:47;5.60;;;3.75;;
16472;SDS011;8347;52.486;13.432;2023-06-14T09:32:36;6.70;;;3.13;;
16472;SDS011;8347;52.486;13.432;2023-06-14T09:35:23;6.72;;;3.40;;
16472;SDS011;8347;52.486;13.432;2023-06-14T09:38:10;7.30;;;3.63;;
16472;SDS011;8347;52.486;13.432;2023-06-14T09:40:57;5.05;;;3.33;;
16472;SDS011;8347;52.486;13.432;2023-06-14T09:43:44;7.78;;;4.07;;
16472;SDS011;8347;52.486;13.432;2023-06-14T09:46:32;5.90;;;3.05;;
16472;SDS011;8347;52.486;13.432;2023-06-14T09:49:20;10.77;;;4.22;;
16472;SDS011;8347;52.486;13.432;2023-06-14T09:52:06;4.68;;;3.70;;
16472;SDS011;8347;52.486;13.432;2023-06-14T09:54:53;5.28;;;3.30;;
16472;SDS011;8347;52.486;13.432;2023-06-14T09:57:41;6.68;;;3.35;;
16472;SDS011;8347;52.486;13.432;2023-06-14T10:00:29;6.07;;;3.55;;
16472;SDS011;8347;52.486;13.432;2023-06-14T10:03:21;7.53;;;3.45;;
16472;SDS011;8347;52.486;13.432;2023-06-14T10:06:08;7.55;;;3.45;;
16472;SDS011;8347;52.486;13.432;2023-06-14T10:08:56;7.25;;;3.97;;
16472;SDS011;8347;52.486;13.432;2023-06-14T10:11:45;9.20;;;3.80;;
16472;SDS011;8347;52.486;13.432;2023-06-14T10:14:32;9.13;;;3.53;;
16472;SDS011;8347;52.486;13.432;2023-06-14T10:17:21;9.43;;;3.22;;
16472;SDS011;8347;52.486;13.432;2023-06-14T10:20:16;4.40;;;3.55;;
16472;SDS011;8347;52.486;13.432;2023-06-14T10:23:16;7.18;;;3.60;;
16472;SDS011;8347;52.486;13.432;2023-06-14T10:26:05;3.70;;;3.05;;
16472;SDS011;8347;52.486;13.432;2023-06-14T10:28:56;7.68;;;3.90;;
16472;SDS011;8347;52.486;13.432;2023-06-14T10:31:44;5.60;;;3.42;;
16472;SDS011;8347;52.486;13.432;2023-06-14T10:34:31;9.50;;;4.57;;
16472;SDS011;8347;52.486;13.432;2023-06-14T10:37:18;7.78;;;3.75;;
16472;SDS011;8347;52.486;13.432;2023-06-14T10:40:05;8.40;;;3.78;;
16472;SDS011;8347;52.486;13.432;2023-06-14T10:42:54;7.25;;;3.47;;
16472;SDS011;8347;52.486;13.432;2023-06-14T10:46:10;6.38;;;3.22;;
16472;SDS011;8347;52.486;13.432;2023-06-14T10:48:59;7.88;;;3.58;;
16472;SDS011;8347;52.486;13.432;2023-06-14T10:51:46;5.38;;;3.55;;
16472;SDS011;8347;52.486;13.432;2023-06-14T10:54:35;13.15;;;3.58;;
16472;SDS011;8347;52.486;13.432;2023-06-14T10:57:22;5.28;;;3.25;;
16472;SDS011;8347;52.486;13.432;2023-06-14T11:00:09;9.07;;;3.28;;
16472;SDS011;8347;52.486;13.432;2023-06-14T11:03:15;5.68;;;3.15;;
16472;SDS011;8347;52.486;13.432;2023-06-14T11:06:22;5.10;;;3.20;;
16472;SDS011;8347;52.486;13.432;2023-06-14T11:12:10;11.20;;;3.75;;
16472;SDS011;8347;52.486;13.432;2023-06-14T11:14:57;6.40;;;3.40;;
16472;SDS011;8347;52.486;13.432;2023-06-14T11:17:53;6.95;;;3.33;;
16472;SDS011;8347;52.486;13.432;2023-06-14T11:20:40;7.97;;;3.15;;
16472;SDS011;8347;52.486;13.432;2023-06-14T11:23:26;4.85;;;2.90;;
16472;SDS011;8347;52.486;13.432;2023-06-14T11:26:12;7.93;;;3.35;;
16472;SDS011;8347;52.486;13.432;2023-06-14T11:28:59;9.63;;;3.92;;
16472;SDS011;8347;52.486;13.432;2023-06-14T11:31:46;6.07;;;3.60;;
16472;SDS011;8347;52.486;13.432;2023-06-14T11:34:33;6.75;;;3.30;;
16472;SDS011;8347;52.486;13.432;2023-06-14T11:37:20;7.15;;;3.38;;
16472;SDS011;8347;52.486;13.432;2023-06-14T11:40:07;9.45;;;3.95;;
16472;SDS011;8347;52.486;13.432;2023-06-14T11:42:59;5.72;;;3.70;;
16472;SDS011;8347;52.486;13.432;2023-06-14T11:45:49;5.65;;;3.50;;
16472;SDS011;8347;52.486;13.432;2023-06-14T11:48:36;5.20;;;3.28;;
16472;SDS011;8347;52.486;13.432;2023-06-14T11:51:23;6.88;;;3.47;;
16472;SDS011;8347;52.486;13.432;2023-06-14T11:54:10;6.97;;;3.10;;
16472;SDS011;8347;52.486;13.432;2023-06-14T11:56:58;9.00;;;3.90;;
16472;SDS011;8347;52.486;13.432;2023-06-14T11:59:45;5.00;;;3.17;;
16472;SDS011;8347;52.486;13.432;2023-06-14T12:02:32;7.45;;;3.05;;
16472;SDS011;8347;52.486;13.432;2023-06-14T12:05:20;8.00;;;3.63;;
16472;SDS011;8347;52.486;13.432;2023-06-14T12:08:07;6.43;;;3.10;;
16472;SDS011;8347;52.486;13.432;2023-06-14T12:10:53;3.60;;;2.97;;
16472;SDS011;8347;52.486;13.432;2023-06-14T12:13:40;5.05;;;3.33;;
16472;SDS011;8347;52.486;13.432;2023-06-14T12:16:31;10.10;;;3.45;;
16472;SDS011;8347;52.486;13.432;2023-06-14T12:19:18;5.97;;;3.20;;
16472;SDS011;8347;52.486;13.432;2023-06-14T12:22:05;9.05;;;3.50;;
16472;SDS011;8347;52.486;13.432;2023-06-14T12:25:00;8.82;;;3.60;;
16472;SDS011;8347;52.486;13.432;2023-06-14T12:27:49;7.00;;;3.30;;
16472;SDS011;8347;52.486;13.432;2023-06-14T12:30:36;5.32;;;2.78;;
16472;SDS011;8347;52.486;13.432;2023-06-14T12:33:23;6.00;;;3.15;;
16472;SDS011;8347;52.486;13.432;2023-06-14T12:36:10;10.43;;;4.32;;
16472;SDS011;8347;52.486;13.432;2023-06-14T12:38:56;6.97;;;3.30;;
16472;SDS011;8347;52.486;13.432;2023-06-14T12:41:43;6.45;;;3.20;;
16472;SDS011;8347;52.486;13.432;2023-06-14T12:44:29;3.92;;;2.95;;
16472;SDS011;8347;52.486;13.432;2023-06-14T12:47:16;12.13;;;3.20;;
16472;SDS011;8347;52.486;13.432;2023-06-14T12:50:03;5.20;;;3.90;;
16472;SDS011;8347;52.486;13.432;2023-06-14T12:52:50;6.07;;;3.15;;
16472;SDS011;8347;52.486;13.432;2023-06-14T12:55:36;7.00;;;3.20;;
16472;SDS011;8347;52.486;13.432;2023-06-14T12:58:22;7.43;;;2.75;;
16472;SDS011;8347;52.486;13.432;2023-06-14T13:01:09;6.00;;;3.17;;
16472;SDS011;8347;52.486;13.432;2023-06-14T13:03:56;6.45;;;2.92;;
16472;SDS011;8347;52.486;13.432;2023-06-14T13:06:42;8.25;;;3.08;;
16472;SDS011;8347;52.486;13.432;2023-06-14T13:09:29;7.10;;;3.20;;
16472;SDS011;8347;52.486;13.432;2023-06-14T13:12:15;5.90;;;4.18;;
16472;SDS011;8347;52.486;13.432;2023-06-14T13:15:02;8.82;;;3.17;;
16472;SDS011;8347;52.486;13.432;2023-06-14T13:17:49;9.60;;;3.55;;
16472;SDS011;8347;52.486;13.432;2023-06-14T13:20:36;4.43;;;3.17;;
16472;SDS011;8347;52.486;13.432;2023-06-14T13:23:22;6.47;;;2.88;;
16472;SDS011;8347;52.486;13.432;2023-06-14T13:26:08;6.20;;;2.80;;
16472;SDS011;8347;52.486;13.432;2023-06-14T13:28:55;8.95;;;3.50;;
16472;SDS011;8347;52.486;13.432;2023-06-14T13:31:42;6.97;;;2.90;;
16472;SDS011;8347;52.486;13.432;2023-06-14T13:34:28;10.80;;;3.50;;
16472;SDS011;8347;52.486;13.432;2023-06-14T13:37:14;4.70;;;3.22;;
16472;SDS011;8347;52.486;13.432;2023-06-14T13:40:01;8.23;;;3.35;;
16472;SDS011;8347;52.486;13.432;2023-06-14T13:42:48;4.63;;;3.47;;
16472;SDS011;8347;52.486;13.432;2023-06-14T13:45:34;4.00;;;3.05;;
16472;SDS011;8347;52.486;13.432;2023-06-14T13:48:21;5.57;;;3.20;;
16472;SDS011;8347;52.486;13.432;2023-06-14T13:51:07;6.50;;;3.03;;
16472;SDS011;8347;52.486;13.432;2023-06-14T13:53:54;13.02;;;3.75;;
16472;SDS011;8347;52.486;13.432;2023-06-14T13:56:41;4.65;;;2.78;;
16472;SDS011;8347;52.486;13.432;2023-06-14T13:59:28;6.53;;;3.53;;
16472;SDS011;8347;52.486;13.432;2023-06-14T14:02:15;7.35;;;3.83;;
16472;SDS011;8347;52.486;13.432;2023-06-14T14:05:01;11.68;;;3.15;;
16472;SDS011;8347;52.486;13.432;2023-06-14T14:07:48;12.98;;;3.35;;
16472;SDS011;8347;52.486;13.432;2023-06-14T14:10:34;11.93;;;4.20;;
16472;SDS011;8347;52.486;13.432;2023-06-14T14:13:21;4.82;;;3.42;;
16472;SDS011;8347;52.486;13.432;2023-06-14T14:16:08;7.70;;;3.88;;
16472;SDS011;8347;52.486;13.432;2023-06-14T14:18:56;10.23;;;3.20;;
16472;SDS011;8347;52.486;13.432;2023-06-14T14:21:42;5.90;;;3.00;;
16472;SDS011;8347;52.486;13.432;2023-06-14T14:24:29;7.45;;;4.00;;
16472;SDS011;8347;52.486;13.432;2023-06-14T14:27:15;5.35;;;3.05;;
16472;SDS011;8347;52.486;13.432;2023-06-14T14:30:02;5.07;;;3.28;;
16472;SDS011;8347;52.486;13.432;2023-06-14T14:32:49;5.25;;;3.17;;
16472;SDS011;8347;52.486;13.432;2023-06-14T14:35:38;3.65;;;2.78;;
16472;SDS011;8347;52.486;13.432;2023-06-14T14:38:25;2.85;;;2.55;;
16472;SDS011;8347;52.486;13.432;2023-06-14T14:41:12;4.72;;;3.15;;
16472;SDS011;8347;52.486;13.432;2023-06-14T14:43:59;8.07;;;3.30;;
16472;SDS011;8347;52.486;13.432;2023-06-14T14:46:46;6.75;;;3.10;;
16472;SDS011;8347;52.486;13.432;2023-06-14T14:49:33;8.02;;;2.80;;
16472;SDS011;8347;52.486;13.432;2023-06-14T14:52:19;4.97;;;3.05;;
16472;SDS011;8347;52.486;13.432;2023-06-14T14:55:06;5.05;;;3.38;;
16472;SDS011;8347;52.486;13.432;2023-06-14T14:57:52;5.43;;;2.65;;
16472;SDS011;8347;52.486;13.432;2023-06-14T15:00:39;8.15;;;2.60;;
16472;SDS011;8347;52.486;13.432;2023-06-14T15:03:25;4.38;;;2.90;;
16472;SDS011;8347;52.486;13.432;2023-06-14T15:06:12;6.32;;;3.60;;
16472;SDS011;8347;52.486;13.432;2023-06-14T15:08:58;7.40;;;2.72;;
16472;SDS011;8347;52.486;13.432;2023-06-14T15:11:45;6.15;;;2.83;;
16472;SDS011;8347;52.486;13.432;2023-06-14T15:14:31;4.13;;;3.38;;
16472;SDS011;8347;52.486;13.432;2023-06-14T15:17:18;7.70;;;3.17;;
16472;SDS011;8347;52.486;13.432;2023-06-14T15:20:05;8.52;;;3.70;;
16472;SDS011;8347;52.486;13.432;2023-06-14T15:22:53;4.70;;;3.28;;
16472;SDS011;8347;52.486;13.432;2023-06-14T15:25:45;7.70;;;3.28;;
16472;SDS011;8347;52.486;13.432;2023-06-14T15:28:33;6.57;;;3.38;;
16472;SDS011;8347;52.486;13.432;2023-06-14T15:31:19;8.40;;;2.88;;
16472;SDS011;8347;52.486;13.432;2023-06-14T15:34:06;9.25;;;2.90;;
16472;SDS011;8347;52.486;13.432;2023-06-14T15:36:53;4.20;;;2.85;;
16472;SDS011;8347;52.486;13.432;2023-06-14T15:39:40;6.22;;;3.58;;
16472;SDS011;8347;52.486;13.432;2023-06-14T15:42:26;5.55;;;3.10;;
16472;SDS011;8347;52.486;13.432;2023-06-14T15:45:13;5.25;;;3.30;;
16472;SDS011;8347;52.486;13.432;2023-06-14T15:47:59;6.05;;;2.83;;
16472;SDS011;8347;52.486;13.432;2023-06-14T15:50:46;6.05;;;2.75;;
16472;SDS011;8347;52.486;13.432;2023-06-14T15:53:32;6.35;;;3.30;;
16472;SDS011;8347;52.486;13.432;2023-06-14T15:56:20;7.53;;;2.90;;
16472;SDS011;8347;52.486;13.432;2023-06-14T15:59:06;9.48;;;3.67;;
16472;SDS011;8347;52.486;13.432;2023-06-14T16:01:53;9.85;;;3.13;;
16472;SDS011;8347;52.486;13.432;2023-06-14T16:04:40;8.15;;;3.05;;
16472;SDS011;8347;52.486;13.432;2023-06-14T16:07:26;5.65;;;3.10;;
16472;SDS011;8347;52.486;13.432;2023-06-14T16:10:13;4.47;;;2.90;;
16472;SDS011;8347;52.486;13.432;2023-06-14T16:12:59;10.45;;;3.47;;
16472;SDS011;8347;52.486;13.432;2023-06-14T16:15:46;4.38;;;3.08;;
16472;SDS011;8347;52.486;13.432;2023-06-14T16:18:32;4.00;;;2.97;;
16472;SDS011;8347;52.486;13.432;2023-06-14T16:21:19;5.00;;;3.17;;
16472;SDS011;8347;52.486;13.432;2023-06-14T16:24:06;7.05;;;3.03;;
16472;SDS011;8347;52.486;13.432;2023-06-14T16:26:53;3.83;;;2.97;;
16472;SDS011;8347;52.486;13.432;2023-06-14T16:29:40;6.80;;;3.47;;
16472;SDS011;8347;52.486;13.432;2023-06-14T16:32:26;6.10;;;3.88;;
16472;SDS011;8347;52.486;13.432;2023-06-14T16:35:14;5.80;;;3.08;;
16472;SDS011;8347;52.486;13.432;2023-06-14T16:38:00;7.68;;;3.55;;
16472;SDS011;8347;52.486;13.432;2023-06-14T16:40:47;4.07;;;3.35;;
16472;SDS011;8347;52.486;13.432;2023-06-14T16:43:34;3.92;;;3.42;;
16472;SDS011;8347;52.486;13.432;2023-06-14T16:46:31;3.22;;;2.78;;
16472;SDS011;8347;52.486;13.432;2023-06-14T16:49:17;3.97;;;3.00;;
16472;SDS011;8347;52.486;13.432;2023-06-14T16:52:04;4.38;;;2.70;;